Time;durP1;ratioP1;P1;durP2;ratioP2;P2;SDS_P1;SDS_P2;PMS_P1;PMS_P2;Temp;Humidity;BMP_temperature;BMP_pressure;BME280_temperature;BME280_humidity;BME280_pressure;Samples;Min_cycle;Max_cycle;Signal;HPM_P1;HPM_P2
2024/03/26 00:01:31;;;;;;;6.03;2.70;;;7.90;23.50;;;;;;5093181;28;20404;-76
2024/03/26 00:03:57;;;;;;;8.03;2.60;;;7.80;24.50;;;;;;5079249;28;20426;-76
2024/03/26 00:06:22;;;;;;;8.50;3.10;;;7.80;24.20;;;;;;5087250;28;20403;-76
2024/03/26 00:08:48;;;;;;;6.93;2.70;;;7.70;25.10;;;;;;5080390;28;20396;-75
2024/03/26 00:11:13;;;;;;;10.10;3.50;;;7.90;23.90;;;;;;5074177;28;20388;-76
2024/03/26 00:13:39;;;;;;;8.10;3.33;;;7.90;24.50;;;;;;5073176;28;20396;-76
2024/03/26 00:16:05;;;;;;;7.97;2.70;;;7.90;24.10;;;;;;5072907;28;20391;-76
2024/03/26 00:18:30;;;;;;;7.22;3.50;;;7.80;25.00;;;;;;5073521;28;20468;-76
2024/03/26 00:20:56;;;;;;;9.95;3.35;;;7.90;25.00;;;;;;5072912;28;20383;-76
2024/03/26 00:23:21;;;;;;;8.07;3.30;;;7.90;24.40;;;;;;5073400;28;20391;-75
2024/03/26 00:25:48;;;;;;;8.00;3.10;;;8.00;24.10;;;;;;5075378;28;20467;-75
2024/03/26 00:28:15;;;;;;;5.30;3.13;;;8.00;24.10;;;;;;5076050;28;20382;-75
2024/03/26 00:30:41;;;;;;;9.90;3.97;;;8.10;24.70;;;;;;5078039;28;20383;-76
2024/03/26 00:33:06;;;;;;;7.30;2.90;;;8.20;25.00;;;;;;5081171;28;20390;-75
2024/03/26 00:35:36;;;;;;;7.43;2.97;;;8.20;23.50;;;;;;5077885;28;20402;-75
2024/03/26 00:38:02;;;;;;;16.05;3.53;;;8.30;22.70;;;;;;5071120;28;20890;-76
2024/03/26 00:40:27;;;;;;;9.55;3.25;;;8.40;23.10;;;;;;5072170;28;20391;-75
2024/03/26 00:42:53;;;;;;;7.57;3.20;;;8.30;23.50;;;;;;5075594;28;20391;-76
2024/03/26 00:45:19;;;;;;;6.65;3.33;;;8.20;24.20;;;;;;5075767;28;20466;-76
2024/03/26 00:47:44;;;;;;;5.57;2.90;;;8.20;23.70;;;;;;5076533;28;20379;-76
2024/03/26 00:50:10;;;;;;;8.73;3.80;;;8.30;23.30;;;;;;5077402;28;20388;-76
2024/03/26 00:52:36;;;;;;;8.10;3.57;;;8.30;24.50;;;;;;5077394;28;20383;-76
2024/03/26 00:55:02;;;;;;;8.60;3.27;;;8.30;23.90;;;;;;5076968;28;20862;-76
2024/03/26 00:57:27;;;;;;;8.25;3.10;;;8.20;24.00;;;;;;5076596;28;20483;-77
2024/03/26 00:59:53;;;;;;;8.48;4.30;;;8.20;23.60;;;;;;5076941;28;20410;-75
2024/03/26 01:02:18;;;;;;;9.48;3.38;;;8.10;24.50;;;;;;5075481;28;20382;-76
2024/03/26 01:04:44;;;;;;;8.90;3.30;;;8.00;24.10;;;;;;5073695;28;20420;-76
2024/03/26 01:07:09;;;;;;;7.67;3.13;;;7.90;24.40;;;;;;5076146;28;20387;-76
2024/03/26 01:09:35;;;;;;;7.63;2.73;;;7.90;24.60;;;;;;5080325;28;20396;-75
2024/03/26 01:12:01;;;;;;;6.83;3.23;;;7.90;24.30;;;;;;5078821;28;20391;-75
2024/03/26 01:14:26;;;;;;;5.43;2.40;;;8.00;24.60;;;;;;5082804;28;20456;-75
2024/03/26 01:16:52;;;;;;;9.87;3.37;;;8.00;24.00;;;;;;5083464;28;20398;-74
2024/03/26 01:19:17;;;;;;;6.47;2.80;;;8.00;25.60;;;;;;5082988;28;20624;-76
2024/03/26 01:21:43;;;;;;;7.33;3.50;;;7.90;24.30;;;;;;5084638;28;20819;-76
2024/03/26 01:24:08;;;;;;;5.53;2.67;;;7.90;25.00;;;;;;5084533;28;20739;-76
2024/03/26 01:26:34;;;;;;;8.50;3.20;;;8.00;24.70;;;;;;5084718;28;20470;-74
2024/03/26 01:28:59;;;;;;;5.70;2.57;;;8.00;24.80;;;;;;5084090;28;20527;-75
2024/03/26 01:31:25;;;;;;;5.97;3.05;;;8.00;24.60;;;;;;5082944;28;20448;-74
2024/03/26 01:33:50;;;;;;;8.95;2.75;;;8.10;24.50;;;;;;5083469;28;20776;-76
2024/03/26 01:36:16;;;;;;;6.82;3.00;;;8.10;24.50;;;;;;5083971;28;20478;-76
2024/03/26 01:38:41;;;;;;;10.30;3.78;;;8.10;24.50;;;;;;5085313;28;20408;-77
2024/03/26 01:41:07;;;;;;;8.10;3.90;;;8.20;25.00;;;;;;5082573;28;20391;-76
2024/03/26 01:43:32;;;;;;;7.60;2.60;;;8.30;25.20;;;;;;5081966;28;20384;-76
2024/03/26 01:45:58;;;;;;;7.27;2.97;;;8.30;23.60;;;;;;5082082;28;20380;-76
2024/03/26 01:48:23;;;;;;;5.27;2.40;;;8.30;24.10;;;;;;5082210;28;20388;-76
2024/03/26 01:50:50;;;;;;;5.53;2.90;;;8.30;23.10;;;;;;5080160;28;20380;-76
2024/03/26 01:53:16;;;;;;;9.48;3.15;;;8.30;23.30;;;;;;5082832;28;20470;-76
2024/03/26 01:55:41;;;;;;;6.65;2.92;;;8.20;24.70;;;;;;5083924;28;20422;-74
2024/03/26 01:58:07;;;;;;;6.60;2.67;;;8.30;23.70;;;;;;5087446;28;20439;-76
2024/03/26 02:00:33;;;;;;;7.73;3.60;;;8.30;23.50;;;;;;5084765;28;20384;-74
2024/03/26 02:02:59;;;;;;;11.45;2.58;;;8.30;23.80;;;;;;5079642;28;20517;-75
2024/03/26 02:05:25;;;;;;;7.55;2.92;;;8.20;24.30;;;;;;5079486;28;20490;-76
2024/03/26 02:07:50;;;;;;;7.75;3.28;;;8.10;23.40;;;;;;5078751;28;20383;-76
2024/03/26 02:10:16;;;;;;;7.47;2.80;;;8.10;24.70;;;;;;5079925;28;20402;-76
2024/03/26 02:12:42;;;;;;;6.87;3.10;;;8.20;23.90;;;;;;5087712;22;20443;-70
2024/03/26 02:15:08;;;;;;;6.13;2.90;;;8.20;24.30;;;;;;5014661;28;20407;-70
2024/03/26 02:17:33;;;;;;;10.65;3.30;;;8.10;25.00;;;;;;5032786;28;20871;-70
2024/03/26 02:20:00;;;;;;;9.73;3.17;;;8.10;23.90;;;;;;5032816;28;20924;-70
2024/03/26 02:22:25;;;;;;;6.10;2.80;;;8.10;23.70;;;;;;5033030;28;20391;-70
2024/03/26 02:24:51;;;;;;;6.67;2.80;;;8.20;24.30;;;;;;5032997;28;20383;-71
2024/03/26 02:27:16;;;;;;;10.20;3.57;;;8.20;23.40;;;;;;5032792;28;20395;-70
2024/03/26 02:29:42;;;;;;;4.80;2.35;;;8.20;24.00;;;;;;5037305;28;20387;-70
2024/03/26 02:32:07;;;;;;;5.60;2.50;;;8.10;23.80;;;;;;5034342;28;20391;-71
2024/03/26 02:34:33;;;;;;;6.45;2.50;;;8.20;23.80;;;;;;5032262;28;20394;-70
2024/03/26 02:36:59;;;;;;;7.30;2.80;;;8.20;23.90;;;;;;5031036;28;20409;-70
2024/03/26 02:39:24;;;;;;;4.53;2.20;;;8.30;24.70;;;;;;5031187;28;20403;-71
2024/03/26 02:41:51;;;;;;;4.88;2.40;;;8.20;23.50;;;;;;5031722;28;20395;-71
2024/03/26 02:44:17;;;;;;;8.27;2.45;;;8.20;23.80;;;;;;5034540;28;20386;-71
2024/03/26 02:46:42;;;;;;;7.70;2.50;;;8.30;23.70;;;;;;5035110;28;20820;-71
2024/03/26 02:49:08;;;;;;;5.72;3.10;;;8.30;23.00;;;;;;5034391;28;20383;-71
2024/03/26 02:51:33;;;;;;;8.02;2.53;;;8.20;23.60;;;;;;5032642;28;20727;-71
2024/03/26 02:53:59;;;;;;;7.55;2.42;;;8.20;23.10;;;;;;5031778;28;20469;-71
2024/03/26 02:56:24;;;;;;;3.90;2.72;;;8.20;23.10;;;;;;5031991;28;20862;-70
2024/03/26 02:58:50;;;;;;;5.30;2.20;;;8.30;24.10;;;;;;5032106;28;20407;-71
2024/03/26 03:01:15;;;;;;;6.40;2.60;;;8.30;23.50;;;;;;5031485;28;20395;-70
2024/03/26 03:03:41;;;;;;;4.43;2.07;;;8.20;23.00;;;;;;5030761;28;20513;-70
2024/03/26 03:06:10;;;;;;;6.00;3.30;;;8.30;23.90;;;;;;5031566;28;20394;-70
2024/03/26 03:08:37;;;;;;;5.40;2.42;;;8.30;24.10;;;;;;5031421;28;20477;-71
2024/03/26 03:11:03;;;;;;;7.95;2.50;;;8.20;23.70;;;;;;5031397;28;20750;-71
2024/03/26 03:13:29;;;;;;;10.38;3.00;;;8.20;24.00;;;;;;5029772;28;20453;-70
2024/03/26 03:15:54;;;;;;;6.13;2.77;;;8.20;24.30;;;;;;5031675;28;20395;-70
2024/03/26 03:18:20;;;;;;;7.00;2.87;;;8.20;25.20;;;;;;5031409;28;20399;-71
2024/03/26 03:20:46;;;;;;;7.27;3.20;;;8.20;24.00;;;;;;5031000;28;20431;-71
2024/03/26 03:23:12;;;;;;;4.32;2.78;;;8.20;25.10;;;;;;5031147;28;20397;-71
2024/03/26 03:25:38;;;;;;;5.50;2.80;;;8.20;25.70;;;;;;5031309;28;20379;-71
2024/03/26 03:28:04;;;;;;;5.60;2.67;;;8.10;24.80;;;;;;5031315;28;20816;-71
2024/03/26 03:30:30;;;;;;;4.80;2.50;;;8.10;24.80;;;;;;5030819;28;20433;-70
2024/03/26 03:32:55;;;;;;;6.13;2.60;;;8.10;24.90;;;;;;5030923;28;20390;-71
2024/03/26 03:35:21;;;;;;;4.83;2.67;;;8.00;24.30;;;;;;5031198;28;20397;-71
2024/03/26 03:37:46;;;;;;;4.77;2.70;;;8.00;25.60;;;;;;5030893;28;20391;-70
2024/03/26 03:40:12;;;;;;;9.50;3.00;;;8.00;25.10;;;;;;5029719;28;20434;-71
2024/03/26 03:42:38;;;;;;;5.03;2.40;;;8.10;25.90;;;;;;5030954;28;20470;-71
2024/03/26 03:45:06;;;;;;;7.07;2.70;;;8.00;25.50;;;;;;5031148;28;20379;-72
2024/03/26 03:47:32;;;;;;;7.43;2.50;;;8.10;25.10;;;;;;5031267;28;20390;-71
2024/03/26 03:49:57;;;;;;;7.83;2.73;;;8.10;24.80;;;;;;5031081;28;20391;-71
2024/03/26 03:52:23;;;;;;;7.40;2.80;;;8.10;25.10;;;;;;5030895;28;20386;-71
2024/03/26 03:54:48;;;;;;;7.80;2.60;;;8.00;25.70;;;;;;5030808;28;20470;-70
2024/03/26 03:57:14;;;;;;;7.78;2.67;;;7.90;26.30;;;;;;5031029;28;20390;-70
2024/03/26 03:59:39;;;;;;;6.20;3.00;;;8.00;25.10;;;;;;5030582;28;20564;-71
2024/03/26 04:02:05;;;;;;;7.53;2.50;;;7.90;25.80;;;;;;5030549;28;20387;-71
2024/03/26 04:04:30;;;;;;;5.43;2.38;;;7.90;25.30;;;;;;5030722;28;20410;-71
2024/03/26 04:06:56;;;;;;;4.97;2.40;;;8.00;26.20;;;;;;5030804;28;20379;-70
2024/03/26 04:09:21;;;;;;;6.93;2.33;;;7.90;26.10;;;;;;5030686;28;20734;-71
2024/03/26 04:11:49;;;;;;;6.80;2.70;;;7.90;26.00;;;;;;5030318;28;20445;-70
2024/03/26 04:14:15;;;;;;;6.38;2.70;;;7.90;26.40;;;;;;5029838;28;20738;-71
2024/03/26 04:16:43;;;;;;;5.30;2.57;;;8.00;25.70;;;;;;5034646;28;20452;-71
2024/03/26 04:19:08;;;;;;;4.25;2.40;;;7.90;26.10;;;;;;5034723;28;20399;-71
2024/03/26 04:21:34;;;;;;;7.32;2.65;;;8.00;26.50;;;;;;5034372;28;20387;-71
2024/03/26 04:24:00;;;;;;;6.53;2.65;;;8.00;26.00;;;;;;5039853;28;20393;-71
2024/03/26 04:26:25;;;;;;;5.00;2.60;;;7.90;26.50;;;;;;5036037;28;20930;-70
2024/03/26 04:28:51;;;;;;;6.40;2.50;;;7.90;26.70;;;;;;5034511;28;20382;-72
2024/03/26 04:31:16;;;;;;;5.22;2.67;;;7.90;26.50;;;;;;5049381;28;20397;-72
2024/03/26 04:33:42;;;;;;;4.55;2.42;;;7.90;25.90;;;;;;5034110;28;20502;-70
2024/03/26 04:36:07;;;;;;;7.03;2.38;;;7.90;26.30;;;;;;5034134;28;20403;-71
2024/03/26 04:38:33;;;;;;;4.90;2.30;;;7.90;27.40;;;;;;5034081;28;20954;-71
2024/03/26 04:40:59;;;;;;;4.28;2.40;;;7.80;26.30;;;;;;5033668;28;20446;-71
2024/03/26 04:43:24;;;;;;;4.13;2.67;;;7.70;27.80;;;;;;5034124;28;20394;-71
2024/03/26 04:45:50;;;;;;;6.37;2.50;;;7.70;26.40;;;;;;5033467;28;20936;-71
2024/03/26 04:48:15;;;;;;;8.65;3.30;;;7.70;26.80;;;;;;5033864;28;20790;-71
2024/03/26 04:50:41;;;;;;;4.90;2.80;;;7.70;28.10;;;;;;5033404;28;20421;-71
2024/03/26 04:53:06;;;;;;;4.93;2.30;;;7.70;28.10;;;;;;5033849;28;20414;-70
2024/03/26 04:55:32;;;;;;;6.35;3.15;;;7.70;26.90;;;;;;5033960;28;20464;-70
2024/03/26 04:57:58;;;;;;;4.45;2.63;;;7.70;27.90;;;;;;5035203;28;20454;-71
2024/03/26 05:00:23;;;;;;;5.10;2.50;;;7.70;27.30;;;;;;5038301;28;20394;-71
2024/03/26 05:02:49;;;;;;;7.03;3.07;;;7.60;27.90;;;;;;5042953;28;20432;-72
2024/03/26 05:05:14;;;;;;;4.30;2.30;;;7.60;27.40;;;;;;5039520;28;20452;-71
2024/03/26 05:07:40;;;;;;;5.80;2.60;;;7.50;28.50;;;;;;5040155;28;20422;-73
2024/03/26 05:10:09;;;;;;;6.90;3.20;;;7.50;28.50;;;;;;5033536;28;20395;-71
2024/03/26 05:12:35;;;;;;;5.77;2.70;;;7.40;28.80;;;;;;5013514;28;20979;-73
2024/03/26 05:15:01;;;;;;;13.53;2.70;;;7.40;29.00;;;;;;5014431;28;20397;-73
2024/03/26 05:17:26;;;;;;;7.18;3.30;;;7.40;28.40;;;;;;5021264;28;20395;-72
2024/03/26 05:19:52;;;;;;;6.63;3.90;;;7.30;29.10;;;;;;5043694;28;20408;-72
2024/03/26 05:22:18;;;;;;;8.20;2.97;;;7.30;29.40;;;;;;5049417;28;20429;-71
2024/03/26 05:24:43;;;;;;;9.68;3.25;;;7.30;28.80;;;;;;5048462;28;20393;-71
2024/03/26 05:27:09;;;;;;;8.63;4.05;;;7.30;28.60;;;;;;5052520;28;20920;-69
2024/03/26 05:29:36;;;;;;;9.73;3.50;;;7.30;28.70;;;;;;5048038;28;20412;-73
2024/03/26 05:32:02;;;;;;;6.97;3.22;;;7.30;29.10;;;;;;5057367;28;20396;-71
2024/03/26 05:34:28;;;;;;;9.70;4.20;;;7.30;28.80;;;;;;5056766;28;20489;-71
2024/03/26 05:36:53;;;;;;;9.50;3.10;;;7.30;30.40;;;;;;5056019;28;20478;-72
2024/03/26 05:39:19;;;;;;;6.45;3.63;;;7.30;29.30;;;;;;5053800;28;20794;-70
2024/03/26 05:41:45;;;;;;;8.13;3.10;;;7.30;29.80;;;;;;5052701;28;20385;-72
2024/03/26 05:44:11;;;;;;;6.38;3.38;;;7.30;28.70;;;;;;5053015;28;20512;-72
2024/03/26 05:46:36;;;;;;;9.35;3.90;;;7.30;29.60;;;;;;5053520;28;20390;-72
2024/03/26 05:49:02;;;;;;;5.68;3.03;;;7.30;28.60;;;;;;5052879;28;20820;-71
2024/03/26 05:51:28;;;;;;;9.77;3.88;;;7.40;28.20;;;;;;5052445;28;20753;-71
2024/03/26 05:53:53;;;;;;;10.00;3.40;;;7.40;28.90;;;;;;5052908;28;20471;-72
2024/03/26 05:56:19;;;;;;;10.70;2.90;;;7.40;28.30;;;;;;5051761;28;20398;-70
2024/03/26 05:58:45;;;;;;;6.70;3.50;;;7.40;28.30;;;;;;5052996;28;20405;-71
2024/03/26 06:01:11;;;;;;;7.70;3.60;;;7.50;28.70;;;;;;5052314;28;20556;-73
2024/03/26 06:03:37;;;;;;;10.67;4.50;;;7.50;28.80;;;;;;5051704;28;20392;-74
2024/03/26 06:06:03;;;;;;;7.55;2.45;;;7.60;28.30;;;;;;5051580;28;20456;-74
2024/03/26 06:08:29;;;;;;;6.95;3.63;;;7.60;27.70;;;;;;5052373;28;20432;-71
2024/03/26 06:10:54;;;;;;;4.97;3.50;;;7.70;28.50;;;;;;5051996;28;20425;-73
2024/03/26 06:13:20;;;;;;;5.25;2.78;;;7.90;28.00;;;;;;5058565;28;20393;-72
2024/03/26 06:15:45;;;;;;;6.45;3.28;;;7.90;27.20;;;;;;5055756;28;20421;-70
2024/03/26 06:18:11;;;;;;;8.77;3.33;;;7.90;27.30;;;;;;5052692;28;20401;-72
2024/03/26 06:20:36;;;;;;;6.50;2.93;;;8.10;26.60;;;;;;5052072;28;20744;-70
2024/03/26 06:23:02;;;;;;;7.73;3.93;;;8.20;26.30;;;;;;5051952;28;20852;-70
2024/03/26 06:25:27;;;;;;;9.70;3.23;;;8.20;26.60;;;;;;5051947;28;20813;-72
2024/03/26 06:27:53;;;;;;;4.80;3.47;;;8.30;26.90;;;;;;5051779;28;20464;-72
2024/03/26 06:30:19;;;;;;;8.53;3.30;;;8.30;26.70;;;;;;5051542;28;20385;-71
2024/03/26 06:32:45;;;;;;;8.13;2.80;;;8.40;26.30;;;;;;5051589;28;20377;-71
2024/03/26 06:35:11;;;;;;;6.43;3.45;;;8.40;26.90;;;;;;5051856;28;20879;-73
2024/03/26 06:37:37;;;;;;;6.70;3.10;;;8.50;26.80;;;;;;5050904;28;20397;-72
2024/03/26 06:40:03;;;;;;;8.00;3.20;;;8.40;26.10;;;;;;5051099;28;20401;-71
2024/03/26 06:42:29;;;;;;;9.27;4.18;;;8.50;26.60;;;;;;5051645;28;20751;-72
2024/03/26 06:44:54;;;;;;;6.93;3.13;;;8.50;26.90;;;;;;5051480;28;20396;-71
2024/03/26 06:47:20;;;;;;;12.60;3.73;;;8.60;25.50;;;;;;5051547;28;20393;-71
2024/03/26 06:49:46;;;;;;;5.80;3.30;;;8.70;26.00;;;;;;5051192;28;20721;-72
2024/03/26 06:52:12;;;;;;;8.70;3.80;;;8.70;25.70;;;;;;5051468;28;20791;-72
2024/03/26 06:54:38;;;;;;;7.00;3.50;;;8.70;25.90;;;;;;5051449;28;20620;-72
2024/03/26 06:57:03;;;;;;;11.10;3.47;;;8.80;25.50;;;;;;5050387;28;20425;-72
2024/03/26 06:59:29;;;;;;;11.20;3.50;;;8.90;25.30;;;;;;5050795;28;20486;-72
2024/03/26 07:01:55;;;;;;;5.10;2.80;;;9.00;25.00;;;;;;5051343;28;20385;-73
2024/03/26 07:04:20;;;;;;;6.80;3.43;;;9.10;24.30;;;;;;5051470;28;20469;-71
2024/03/26 07:06:46;;;;;;;7.47;3.20;;;9.10;24.90;;;;;;5051158;28;20378;-72
2024/03/26 07:09:11;;;;;;;7.73;3.50;;;9.20;24.40;;;;;;5051638;28;20465;-71
2024/03/26 07:11:37;;;;;;;8.17;3.33;;;9.30;23.90;;;;;;5051478;28;20450;-71
2024/03/26 07:14:03;;;;;;;4.63;2.78;;;9.50;24.00;;;;;;5051189;28;20424;-71
2024/03/26 07:16:29;;;;;;;6.30;3.30;;;9.50;22.90;;;;;;5050740;28;20745;-70
2024/03/26 07:18:54;;;;;;;6.20;3.40;;;9.40;23.50;;;;;;5049496;28;20504;-70
2024/03/26 07:21:20;;;;;;;6.63;2.85;;;9.50;23.70;;;;;;5051056;28;20872;-73
2024/03/26 07:23:46;;;;;;;9.07;2.90;;;9.60;23.40;;;;;;5050658;28;20398;-73
2024/03/26 07:26:11;;;;;;;11.00;4.20;;;9.70;22.30;;;;;;5050646;28;20386;-73
2024/03/26 07:28:38;;;;;;;6.23;2.83;;;9.70;23.50;;;;;;5050979;28;20396;-69
2024/03/26 07:31:04;;;;;;;6.85;3.42;;;9.70;23.00;;;;;;5050363;28;20427;-73
2024/03/26 07:33:29;;;;;;;8.47;3.50;;;9.90;23.30;;;;;;5050509;28;20385;-72
2024/03/26 07:35:55;;;;;;;7.00;3.40;;;9.90;23.30;;;;;;5050860;28;20890;-72
2024/03/26 07:38:20;;;;;;;5.27;3.40;;;9.90;22.50;;;;;;5050892;28;20393;-72
2024/03/26 07:40:46;;;;;;;6.90;3.40;;;9.90;22.70;;;;;;5050291;28;20401;-71
2024/03/26 07:43:11;;;;;;;9.00;3.90;;;9.90;22.20;;;;;;5050553;28;20394;-72
2024/03/26 07:45:37;;;;;;;9.90;3.55;;;10.00;22.40;;;;;;5050457;28;20397;-71
2024/03/26 07:48:03;;;;;;;3.50;2.80;;;10.00;21.50;;;;;;5050903;28;20386;-72
2024/03/26 07:50:28;;;;;;;6.47;3.35;;;10.10;22.30;;;;;;5050224;28;20388;-71
2024/03/26 07:52:54;;;;;;;8.20;3.65;;;10.10;21.90;;;;;;5050431;28;20456;-70
2024/03/26 07:55:20;;;;;;;5.45;2.85;;;10.20;23.00;;;;;;5051074;28;20389;-72
2024/03/26 07:57:45;;;;;;;8.98;3.50;;;10.20;21.40;;;;;;5051275;28;20393;-71
2024/03/26 08:00:13;;;;;;;8.23;3.60;;;10.40;22.10;;;;;;5050637;28;20501;-71
2024/03/26 08:02:38;;;;;;;9.55;3.10;;;10.50;21.30;;;;;;5050337;28;20460;-72
2024/03/26 08:05:05;;;;;;;6.60;3.30;;;10.50;20.50;;;;;;5050615;28;20392;-70
2024/03/26 08:07:31;;;;;;;9.88;3.38;;;10.50;21.10;;;;;;5050129;28;20761;-71
2024/03/26 08:09:57;;;;;;;7.03;3.20;;;10.70;21.20;;;;;;5050128;28;20389;-71
2024/03/26 08:14:51;;;;;;;4.50;3.00;;;10.80;20.60;;;;;;5028889;28;20434;-76
2024/03/26 08:17:17;;;;;;;5.13;2.97;;;10.90;20.30;;;;;;5032366;28;20379;-78
2024/03/26 08:19:42;;;;;;;5.93;3.10;;;11.00;20.00;;;;;;5031011;28;20410;-76
2024/03/26 08:22:08;;;;;;;9.83;3.60;;;11.10;20.70;;;;;;5030948;28;20395;-77
2024/03/26 08:24:33;;;;;;;9.07;3.17;;;11.30;20.00;;;;;;5031667;28;20469;-78
2024/03/26 08:26:59;;;;;;;6.53;3.20;;;11.40;19.90;;;;;;5034069;28;20402;-77
2024/03/26 08:29:25;;;;;;;7.78;3.17;;;11.50;19.50;;;;;;5032324;28;20391;-75
2024/03/26 08:31:51;;;;;;;7.60;3.60;;;11.60;19.00;;;;;;5032110;28;20394;-75
2024/03/26 08:34:17;;;;;;;11.43;3.53;;;11.80;19.20;;;;;;5031123;28;20410;-76
2024/03/26 08:36:43;;;;;;;5.30;3.17;;;11.90;18.80;;;;;;5030337;28;20498;-77
2024/03/26 08:39:10;;;;;;;6.35;3.40;;;11.90;19.10;;;;;;5030923;28;20424;-76
2024/03/26 08:41:36;;;;;;;4.30;3.20;;;12.00;18.30;;;;;;5035896;28;20644;-77
2024/03/26 08:44:06;;;;;;;6.43;3.40;;;12.00;18.80;;;;;;5038221;28;20866;-76
2024/03/26 08:46:32;;;;;;;5.97;2.92;;;12.00;18.70;;;;;;5031853;28;20474;-77
2024/03/26 08:48:58;;;;;;;7.90;3.05;;;12.00;18.40;;;;;;5030468;28;20438;-75
2024/03/26 08:51:27;;;;;;;8.30;3.42;;;12.10;18.60;;;;;;5032117;28;20383;-77
2024/03/26 08:53:54;;;;;;;5.30;2.97;;;12.10;18.60;;;;;;5032552;28;20418;-76
2024/03/26 08:56:20;;;;;;;5.70;2.90;;;12.20;17.70;;;;;;5030545;28;20465;-77
2024/03/26 08:58:46;;;;;;;8.45;2.90;;;12.20;17.80;;;;;;5030941;28;20921;-77
2024/03/26 09:01:11;;;;;;;5.65;3.10;;;12.20;18.00;;;;;;5030971;28;20426;-77
2024/03/26 09:03:37;;;;;;;8.57;2.90;;;12.20;18.10;;;;;;5034857;28;20375;-77
2024/03/26 09:06:03;;;;;;;7.00;2.93;;;12.20;17.30;;;;;;5034597;28;20382;-77
2024/03/26 09:08:28;;;;;;;6.47;2.75;;;12.20;18.10;;;;;;5034358;28;20916;-77
2024/03/26 09:10:54;;;;;;;8.17;3.57;;;12.10;18.80;;;;;;5035324;28;20399;-76
2024/03/26 09:13:19;;;;;;;9.50;3.30;;;11.90;19.20;;;;;;5035172;28;20399;-77
2024/03/26 09:15:45;;;;;;;10.83;3.50;;;11.80;18.60;;;;;;5035258;28;20399;-76
2024/03/26 09:18:11;;;;;;;5.72;2.92;;;11.70;19.00;;;;;;5033705;28;20488;-77
2024/03/26 09:20:36;;;;;;;4.40;2.60;;;11.70;19.40;;;;;;5034296;28;20415;-76
2024/03/26 09:23:02;;;;;;;5.45;2.70;;;11.70;18.70;;;;;;5034438;28;20826;-76
2024/03/26 09:25:27;;;;;;;7.17;3.07;;;11.50;19.20;;;;;;5035771;28;20869;-77
2024/03/26 09:27:53;;;;;;;5.83;2.60;;;11.40;19.30;;;;;;5036593;28;20383;-76
2024/03/26 09:30:18;;;;;;;6.80;3.07;;;11.30;19.80;;;;;;5037024;28;20685;-77
2024/03/26 09:32:44;;;;;;;9.07;3.00;;;11.30;20.00;;;;;;5055583;28;20414;-76
2024/03/26 09:35:09;;;;;;;6.43;3.00;;;11.30;20.00;;;;;;5056728;28;20398;-77
2024/03/26 09:37:35;;;;;;;4.53;3.10;;;11.40;19.30;;;;;;5048748;28;20893;-76
2024/03/26 09:40:01;;;;;;;6.55;2.63;;;11.50;19.80;;;;;;5034293;28;20407;-76
2024/03/26 09:42:28;;;;;;;5.30;3.03;;;11.60;19.50;;;;;;5039877;28;20800;-76
2024/03/26 09:44:55;;;;;;;8.25;2.92;;;11.60;19.60;;;;;;5040213;28;20383;-77
2024/03/26 09:47:22;;;;;;;6.35;2.95;;;12.60;19.70;;;;;;5036085;28;21000;-76
2024/03/26 09:49:49;;;;;;;9.25;2.97;;;11.80;20.30;;;;;;5035073;28;20399;-77
2024/03/26 09:52:15;;;;;;;5.53;2.90;;;11.80;19.50;;;;;;5034288;28;20395;-77
2024/03/26 09:54:43;;;;;;;7.50;3.00;;;11.90;19.10;;;;;;5033216;28;20398;-76
2024/03/26 09:57:08;;;;;;;5.87;3.23;;;12.10;19.10;;;;;;5033817;28;20418;-77
2024/03/26 09:59:34;;;;;;;5.80;3.00;;;12.10;19.90;;;;;;5033977;28;20838;-76
2024/03/26 10:02:07;;;;;;;9.23;3.33;;;12.10;19.60;;;;;;5033837;28;20387;-77
2024/03/26 10:04:33;;;;;;;5.87;3.20;;;12.30;19.70;;;;;;5034117;28;20415;-75
2024/03/26 10:06:59;;;;;;;5.40;2.90;;;12.40;19.10;;;;;;5034471;28;20887;-77
2024/03/26 10:09:24;;;;;;;5.25;3.00;;;12.50;19.40;;;;;;5035202;28;20473;-77
2024/03/26 10:11:50;;;;;;;7.50;3.30;;;12.60;19.10;;;;;;5033973;28;20883;-76
2024/03/26 10:14:16;;;;;;;8.10;2.90;;;12.60;19.10;;;;;;5032960;28;20438;-77
2024/03/26 10:16:42;;;;;;;8.55;3.60;;;12.60;19.70;;;;;;5033004;28;20432;-76
2024/03/26 10:19:08;;;;;;;6.00;3.20;;;12.60;20.00;;;;;;5032906;28;20883;-77
2024/03/26 10:21:34;;;;;;;4.93;2.60;;;12.70;19.40;;;;;;5033633;28;20869;-76
2024/03/26 10:24:00;;;;;;;13.50;4.37;;;12.80;19.10;;;;;;5032539;28;20399;-77
2024/03/26 10:26:26;;;;;;;5.90;3.00;;;13.00;19.00;;;;;;5032304;28;20822;-77
2024/03/26 10:28:52;;;;;;;6.03;3.00;;;13.10;18.90;;;;;;5033505;28;20426;-78
2024/03/26 10:31:19;;;;;;;6.67;3.07;;;13.10;18.10;;;;;;5032286;28;20484;-77
2024/03/26 10:33:47;;;;;;;6.47;3.05;;;13.20;18.40;;;;;;5032608;28;20746;-78
2024/03/26 10:36:15;;;;;;;5.22;2.70;;;13.20;18.30;;;;;;5033547;28;20387;-77
2024/03/26 10:38:42;;;;;;;4.90;2.80;;;13.20;18.50;;;;;;5033342;28;20461;-77
2024/03/26 10:41:16;;;;;;;6.63;2.90;;;13.30;18.00;;;;;;5032035;28;21013;-76
2024/03/26 10:43:42;;;;;;;5.47;2.70;;;13.20;18.50;;;;;;5033748;28;20399;-76
2024/03/26 10:46:08;;;;;;;5.82;2.85;;;13.10;18.10;;;;;;5035953;28;20394;-76
2024/03/26 10:48:35;;;;;;;5.97;2.47;;;13.20;18.90;;;;;;5034203;28;20391;-76
2024/03/26 10:51:02;;;;;;;7.00;3.27;;;13.20;18.10;;;;;;5032825;28;20379;-77
2024/03/26 10:53:29;;;;;;;5.43;2.70;;;13.40;18.60;;;;;;5031924;28;20417;-77
2024/03/26 10:55:57;;;;;;;4.10;2.38;;;13.40;18.70;;;;;;5031321;28;20393;-77
2024/03/26 10:58:24;;;;;;;7.27;3.00;;;13.60;18.10;;;;;;5033096;28;20411;-76
2024/03/26 11:00:51;;;;;;;8.43;2.58;;;13.80;18.00;;;;;;5033840;28;20881;-77
2024/03/26 11:03:18;;;;;;;4.88;2.47;;;14.20;17.60;;;;;;5032302;28;20482;-77
2024/03/26 11:05:45;;;;;;;6.00;2.80;;;14.40;17.30;;;;;;5032326;28;20418;-76
2024/03/26 11:08:17;;;;;;;4.27;2.33;;;14.60;17.30;;;;;;5032201;28;20578;-78
2024/03/26 11:11:12;;;;;;;8.77;3.50;;;14.90;16.40;;;;;;5032236;28;20383;-77
2024/03/26 11:13:39;;;;;;;4.55;2.50;;;15.20;16.20;;;;;;5031419;28;20407;-76
2024/03/26 11:16:11;;;;;;;9.07;3.05;;;15.50;16.20;;;;;;5032463;28;20386;-75
2024/03/26 11:18:39;;;;;;;6.50;2.42;;;15.80;15.70;;;;;;5031603;28;20403;-76
2024/03/26 11:21:06;;;;;;;4.57;2.33;;;16.00;15.30;;;;;;5031574;28;20462;-77
2024/03/26 11:23:36;;;;;;;8.60;2.90;;;15.90;15.10;;;;;;5031482;28;20386;-76
2024/03/26 11:26:02;;;;;;;6.00;3.00;;;15.80;15.40;;;;;;5031969;28;20445;-75
2024/03/26 11:28:32;;;;;;;6.93;3.20;;;15.80;16.00;;;;;;5032250;28;20711;-75
2024/03/26 11:30:58;;;;;;;4.68;2.70;;;15.70;15.90;;;;;;5035796;28;20488;-76
2024/03/26 11:33:25;;;;;;;9.93;3.13;;;15.50;15.70;;;;;;5031678;28;20394;-76
2024/03/26 11:35:51;;;;;;;8.68;3.58;;;15.30;16.60;;;;;;5032123;28;20395;-76
2024/03/26 11:38:17;;;;;;;7.03;2.90;;;15.30;16.60;;;;;;5031692;28;20498;-76
2024/03/26 11:40:44;;;;;;;9.65;3.05;;;15.30;17.10;;;;;;5031347;28;20480;-77
2024/03/26 11:43:10;;;;;;;7.73;2.67;;;15.40;17.10;;;;;;5031699;28;20391;-76
2024/03/26 11:45:35;;;;;;;5.63;2.70;;;15.50;16.90;;;;;;5031680;28;20704;-76
2024/03/26 11:48:01;;;;;;;12.30;2.90;;;15.60;16.50;;;;;;5031560;28;20441;-75
2024/03/26 11:50:27;;;;;;;5.27;2.83;;;15.50;16.10;;;;;;5031277;28;20387;-77
2024/03/26 11:52:52;;;;;;;7.97;2.80;;;15.50;16.60;;;;;;5030313;28;20426;-75
2024/03/26 11:55:18;;;;;;;5.90;2.60;;;15.40;16.60;;;;;;5031642;28;20474;-77
2024/03/26 11:57:44;;;;;;;7.00;3.10;;;15.50;17.10;;;;;;5031266;28;20387;-76
2024/03/26 12:00:11;;;;;;;6.85;2.65;;;15.60;17.00;;;;;;5032231;28;20854;-77
2024/03/26 12:02:36;;;;;;;7.05;2.75;;;15.70;16.90;;;;;;5034089;28;20379;-76
2024/03/26 12:05:03;;;;;;;5.00;2.60;;;15.60;16.80;;;;;;5032583;28;20449;-77
2024/03/26 12:07:30;;;;;;;5.78;2.55;;;15.70;16.90;;;;;;5034561;28;20397;-77
2024/03/26 12:09:56;;;;;;;8.90;2.72;;;15.70;16.80;;;;;;5031713;28;20402;-77
2024/03/26 12:12:22;;;;;;;5.65;2.30;;;15.60;16.70;;;;;;5033505;28;20398;-76
2024/03/26 12:14:49;;;;;;;9.63;2.60;;;15.70;16.70;;;;;;5032369;28;20976;-76
2024/03/26 12:17:15;;;;;;;8.50;2.60;;;15.80;16.50;;;;;;5033842;28;20865;-75
2024/03/26 12:19:41;;;;;;;9.02;2.63;;;15.90;16.60;;;;;;5035331;28;20418;-77
2024/03/26 12:22:08;;;;;;;7.03;2.80;;;16.10;16.30;;;;;;5031115;28;20391;-76
2024/03/26 12:24:37;;;;;;;7.10;2.70;;;16.20;16.00;;;;;;5030934;28;20456;-76
2024/03/26 12:27:04;;;;;;;4.03;2.28;;;16.30;16.20;;;;;;5031440;28;20401;-76
2024/03/26 12:29:30;;;;;;;6.53;2.85;;;16.30;15.60;;;;;;5029337;28;20390;-77
2024/03/26 12:31:56;;;;;;;5.65;2.72;;;16.40;16.00;;;;;;5030698;28;20395;-77
2024/03/26 12:34:22;;;;;;;5.88;2.80;;;16.50;15.50;;;;;;5031367;28;20387;-76
2024/03/26 12:36:48;;;;;;;4.90;2.90;;;16.60;15.60;;;;;;5034462;28;20457;-77
2024/03/26 12:39:14;;;;;;;6.60;3.00;;;16.50;15.50;;;;;;5033560;28;20497;-77
2024/03/26 12:41:39;;;;;;;4.33;2.20;;;16.70;16.10;;;;;;5035495;28;20426;-76
2024/03/26 12:44:09;;;;;;;7.93;2.90;;;16.80;15.20;;;;;;5035660;28;20398;-77
2024/03/26 12:46:35;;;;;;;7.55;2.70;;;16.70;14.90;;;;;;5033970;28;20452;-76
2024/03/26 12:49:04;;;;;;;6.97;3.10;;;16.80;15.40;;;;;;5035730;28;20393;-75